createdAt,value
2022-08-09T06:32:59.388Z,95.90
2022-08-09T06:35:55.772Z,95.30
2022-08-09T06:38:31.985Z,92.90
2022-08-09T06:41:08.599Z,92.60
2022-08-09T06:43:46.742Z,91.50
2022-08-09T06:46:39.756Z,90.60
2022-08-09T06:49:02.850Z,90.80
2022-08-09T06:51:30.866Z,89.00
2022-08-09T06:54:00.826Z,88.40
2022-08-09T06:56:30.902Z,86.70
2022-08-09T07:00:51.494Z,88.80
2022-08-09T07:01:57.921Z,84.90
2022-08-09T07:04:31.431Z,85.60
2022-08-09T07:07:00.790Z,85.80
2022-08-09T07:09:53.505Z,83.80
2022-08-09T07:12:18.754Z,85.40
2022-08-09T07:14:51.211Z,84.40
2022-08-09T07:17:20.389Z,84.20
2022-08-09T07:19:55.265Z,81.60
2022-08-09T07:22:27.458Z,81.90
2022-08-09T07:25:05.528Z,81.30
2022-08-09T07:27:42.911Z,81.90
2022-08-09T07:30:21.669Z,81.00
2022-08-09T07:32:55.013Z,79.90
2022-08-09T07:35:23.356Z,80.40
2022-08-09T07:37:53.994Z,80.40
2022-08-09T07:40:33.765Z,81.10
2022-08-09T07:43:16.891Z,82.00
2022-08-09T07:45:44.697Z,82.10
2022-08-09T07:48:28.563Z,83.60
2022-08-09T07:51:09.460Z,82.20
2022-08-09T07:54:06.741Z,83.40
2022-08-09T07:56:38.976Z,84.60
2022-08-09T07:59:24.919Z,84.60
2022-08-09T08:02:00.913Z,84.20
2022-08-09T08:04:32.100Z,82.80
2022-08-09T08:07:15.299Z,83.00
2022-08-09T08:09:54.930Z,82.20
2022-08-09T08:12:43.431Z,83.20
2022-08-09T08:15:16.773Z,83.00
2022-08-09T08:17:53.639Z,83.40
2022-08-09T08:20:29.370Z,83.10
2022-08-09T08:23:06.370Z,83.30
2022-08-09T08:25:48.561Z,82.80
2022-08-09T08:28:25.777Z,83.00
2022-08-09T08:31:10.593Z,80.80
2022-08-09T08:33:49.734Z,82.00
2022-08-09T08:36:29.745Z,81.10
2022-08-09T08:38:59.601Z,81.50
2022-08-09T08:41:41.715Z,81.50
2022-08-09T08:44:22.941Z,81.60
2022-08-09T08:47:02.516Z,81.80
2022-08-09T08:49:38.456Z,81.40
2022-08-09T08:52:34.996Z,80.70
2022-08-09T08:55:05.698Z,79.50
2022-08-09T08:57:35.144Z,82.40
2022-08-09T09:00:08.197Z,80.40
2022-08-09T09:02:46.985Z,80.10
2022-08-09T09:05:33.169Z,80.70
2022-08-09T09:08:29.322Z,80.60
2022-08-09T09:11:03.980Z,80.70
2022-08-09T09:13:54.722Z,81.00
2022-08-09T09:16:38.586Z,81.10
2022-08-09T09:22:05.165Z,80.70
2022-08-09T09:24:43.364Z,80.10
2022-08-09T09:28:03.196Z,79.70
2022-08-09T09:30:19.259Z,80.50
2022-08-09T09:33:16.631Z,79.70
2022-08-09T09:36:01.487Z,80.00
2022-08-09T09:38:52.442Z,80.40
2022-08-09T09:41:32.590Z,79.80
2022-08-09T09:44:10.578Z,79.80
2022-08-09T09:46:50.760Z,80.00
2022-08-09T09:49:31.963Z,80.30
2022-08-09T09:52:33.468Z,79.30
2022-08-09T09:55:07.904Z,79.90
2022-08-09T09:58:18.318Z,80.60
2022-08-09T10:00:55.018Z,79.40
2022-08-09T10:03:56.350Z,78.90
2022-08-09T10:06:25.612Z,78.90
2022-08-09T10:09:11.957Z,79.60
2022-08-09T10:12:14.473Z,79.20
2022-08-09T10:14:49.613Z,78.90
2022-08-09T10:17:50.653Z,78.50
2022-08-09T10:20:26.908Z,78.90
2022-08-09T10:23:16.903Z,77.90
2022-08-09T10:26:06.159Z,76.90
2022-08-09T10:28:35.166Z,78.20
2022-08-09T10:34:09.907Z,77.50
2022-08-09T10:36:40.250Z,77.10
2022-08-09T10:39:15.768Z,75.20
2022-08-09T10:41:48.204Z,74.80
2022-08-09T10:44:21.692Z,77.00
2022-08-09T10:48:11.923Z,76.90
2022-08-09T10:50:26.921Z,76.70
2022-08-09T10:53:23.223Z,77.20
2022-08-09T10:55:58.795Z,77.70
2022-08-09T10:58:33.569Z,76.00
2022-08-09T11:03:06.450Z,76.00
2022-08-09T11:04:20.074Z,76.50
2022-08-09T11:07:00.018Z,75.10
2022-08-09T11:09:47.721Z,76.20
2022-08-09T11:12:29.851Z,75.30
2022-08-09T11:15:33.731Z,76.50
2022-08-09T11:18:02.944Z,75.50
2022-08-09T11:20:42.345Z,76.90
2022-08-09T11:23:11.764Z,76.90
2022-08-09T11:25:47.450Z,76.10
2022-08-09T11:28:54.078Z,75.20
2022-08-09T11:31:49.580Z,75.50
2022-08-09T11:34:42.859Z,74.70
2022-08-09T11:37:23.780Z,76.50
2022-08-09T11:40:06.158Z,75.20
2022-08-09T11:42:50.111Z,75.30
2022-08-09T11:45:37.692Z,76.10
2022-08-09T11:48:25.163Z,73.80
2022-08-09T11:52:50.021Z,75.30
2022-08-09T11:54:33.522Z,75.30
2022-08-09T11:57:47.553Z,75.60
2022-08-09T12:00:33.146Z,75.50
2022-08-09T12:03:50.610Z,74.80
2022-08-09T12:05:50.404Z,74.80
2022-08-09T12:08:21.584Z,74.60
2022-08-09T12:10:53.027Z,75.30
2022-08-09T12:14:07.778Z,75.30
2022-08-09T12:16:44.486Z,75.20
2022-08-09T12:19:14.599Z,75.90
2022-08-09T12:21:50.502Z,75.70
2022-08-09T12:24:25.268Z,76.20
2022-08-09T12:29:10.495Z,76.40
2022-08-09T12:30:01.608Z,76.20
2022-08-09T12:32:44.266Z,75.60
2022-08-09T12:35:12.541Z,76.00
2022-08-09T12:37:50.064Z,76.10
2022-08-09T12:40:23.179Z,75.40
2022-08-09T12:42:54.469Z,75.90
2022-08-09T12:45:34.872Z,76.60
2022-08-09T12:48:20.124Z,76.60
2022-08-09T12:50:56.067Z,76.00
2022-08-09T12:53:44.679Z,76.00
2022-08-09T12:56:43.647Z,76.80
2022-08-09T12:59:16.036Z,75.50
2022-08-09T13:02:09.631Z,77.00
2022-08-09T13:04:39.322Z,76.50
2022-08-09T13:07:19.984Z,76.70
2022-08-09T13:10:04.179Z,76.90
2022-08-09T13:12:32.512Z,77.30
2022-08-09T13:15:07.376Z,77.30
2022-08-09T13:18:02.769Z,77.50
2022-08-09T13:20:37.278Z,77.60
2022-08-09T13:24:42.009Z,78.00
2022-08-09T13:26:06.662Z,77.60
2022-08-09T13:28:39.432Z,77.50
2022-08-09T13:32:14.449Z,77.50
2022-08-09T13:33:57.338Z,77.30
2022-08-09T13:36:42.697Z,78.10
2022-08-09T13:39:34.317Z,78.10
2022-08-09T13:42:11.846Z,78.60
2022-08-09T13:44:42.602Z,78.50
2022-08-09T13:47:33.930Z,78.40
2022-08-09T13:50:12.402Z,78.70
2022-08-09T13:52:41.777Z,78.70
2022-08-09T13:55:13.675Z,79.10
2022-08-09T13:57:53.013Z,79.10
2022-08-09T14:00:28.731Z,79.00
2022-08-09T14:03:16.687Z,79.10
2022-08-09T14:05:58.697Z,79.30
2022-08-09T14:08:30.448Z,79.80
2022-08-09T14:11:00.577Z,80.20
2022-08-09T14:14:22.579Z,79.80
2022-08-09T14:16:28.261Z,80.00
2022-08-09T14:18:57.184Z,79.80
2022-08-09T14:21:29.380Z,79.80
2022-08-09T14:24:01.164Z,79.70
2022-08-09T14:26:38.061Z,79.90
2022-08-09T14:30:04.454Z,80.40
2022-08-09T14:31:57.553Z,80.10
2022-08-09T14:34:30.891Z,79.90
2022-08-09T14:37:02.295Z,79.90
2022-08-09T14:39:45.937Z,79.20
2022-08-09T14:42:30.387Z,79.50
2022-08-09T14:46:57.492Z,79.10
2022-08-09T14:47:57.979Z,79.70
2022-08-09T14:50:28.483Z,79.90
2022-08-09T14:52:56.163Z,80.10
2022-08-09T14:55:23.611Z,80.10
2022-08-09T14:57:51.715Z,80.50
2022-08-09T15:00:19.254Z,80.50
2022-08-09T15:02:47.765Z,80.50
2022-08-09T15:05:20.368Z,80.40
2022-08-09T15:07:56.013Z,80.40
2022-08-09T15:10:29.511Z,80.50
2022-08-09T15:13:01.470Z,80.50
2022-08-09T15:15:29.523Z,80.80
2022-08-09T15:18:02.717Z,80.60
2022-08-09T15:21:55.662Z,80.20
2022-08-09T15:24:00.604Z,80.30
2022-08-09T15:26:09.215Z,80.10
2022-08-09T15:28:54.703Z,80.70
2022-08-09T15:31:40.448Z,80.50
2022-08-09T15:34:31.519Z,79.50
2022-08-09T15:36:58.186Z,79.80
2022-08-09T15:39:34.891Z,80.30
2022-08-09T15:42:14.794Z,80.50
2022-08-09T15:44:42.451Z,80.30
2022-08-09T15:47:14.615Z,80.40
2022-08-09T15:50:00.742Z,80.50
2022-08-09T15:52:36.200Z,80.60
2022-08-09T15:55:10.155Z,80.70
2022-08-09T15:57:44.254Z,80.80
2022-08-09T16:00:25.439Z,80.60
2022-08-09T16:02:56.838Z,80.80
2022-08-09T16:05:36.264Z,81.10
2022-08-09T16:08:30.153Z,81.20
2022-08-09T16:11:01.425Z,81.30
2022-08-09T16:14:02.960Z,81.90
2022-08-09T16:16:28.136Z,81.10
2022-08-09T16:18:55.916Z,81.30
2022-08-09T16:21:25.680Z,80.80
2022-08-09T16:24:01.749Z,80.90
2022-08-09T16:26:34.593Z,81.00
2022-08-09T16:29:11.166Z,80.40
2022-08-09T16:32:18.258Z,80.40
2022-08-09T16:34:55.368Z,80.40
2022-08-09T16:37:55.931Z,80.60
2022-08-09T16:40:14.404Z,80.40
2022-08-09T16:42:58.171Z,80.50
2022-08-09T16:45:27.208Z,80.40
2022-08-09T16:48:41.194Z,80.50
2022-08-09T16:50:58.847Z,80.70
2022-08-09T16:53:32.559Z,81.00
2022-08-09T16:56:07.583Z,81.00
2022-08-09T16:58:39.638Z,81.40
2022-08-09T17:01:10.373Z,81.40
2022-08-09T17:03:37.915Z,81.50
2022-08-09T17:06:31.753Z,81.70
2022-08-09T17:08:59.005Z,82.00
2022-08-09T17:11:40.567Z,82.60
2022-08-09T17:14:26.283Z,82.50
2022-08-09T17:17:02.124Z,82.80
2022-08-09T17:20:05.008Z,83.20
2022-08-09T17:22:28.901Z,83.10
2022-08-09T17:25:04.832Z,84.20
2022-08-09T17:27:39.685Z,84.10
2022-08-09T17:30:17.221Z,84.00
2022-08-09T17:32:47.321Z,84.60
2022-08-09T17:35:14.908Z,85.00
2022-08-09T17:38:14.536Z,85.00
2022-08-09T17:40:33.681Z,85.40
2022-08-09T17:43:32.186Z,85.40
2022-08-09T17:46:03.517Z,85.60
2022-08-09T17:48:33.102Z,85.80
2022-08-09T17:51:08.924Z,86.60
2022-08-09T17:53:43.058Z,86.40
2022-08-09T17:56:11.454Z,86.40
2022-08-09T17:58:38.923Z,87.00
2022-08-09T18:01:15.376Z,87.80
2022-08-09T18:03:54.480Z,87.90
2022-08-09T18:06:30.753Z,87.80
2022-08-09T18:09:05.049Z,88.50
2022-08-09T18:12:05.422Z,87.90
2022-08-09T18:14:23.074Z,88.80
2022-08-09T18:16:51.124Z,88.10
2022-08-09T18:20:55.678Z,89.10
2022-08-09T18:22:16.715Z,89.70
2022-08-09T18:24:46.500Z,89.20
2022-08-09T18:27:49.387Z,90.00
2022-08-09T18:30:38.917Z,89.30
2022-08-09T18:32:54.546Z,89.40
2022-08-09T18:35:58.503Z,90.00
2022-08-09T18:38:11.751Z,90.10
2022-08-09T18:40:45.648Z,90.10
2022-08-09T18:43:13.428Z,90.10
2022-08-09T18:46:48.544Z,90.40
2022-08-09T18:48:32.602Z,90.30
2022-08-09T18:51:02.038Z,90.50
2022-08-09T18:53:56.463Z,90.80
2022-08-09T18:56:17.326Z,90.50
2022-08-09T18:58:55.340Z,90.70
2022-08-09T19:01:24.116Z,90.60
2022-08-09T19:04:01.783Z,91.20
2022-08-09T19:06:34.717Z,91.10
2022-08-09T19:09:05.275Z,90.90
2022-08-09T19:11:37.338Z,91.50
2022-08-09T19:14:07.714Z,91.10
2022-08-09T19:16:37.952Z,91.60
2022-08-09T19:19:25.334Z,91.30
2022-08-09T19:22:06.653Z,91.70
2022-08-09T19:25:09.211Z,92.00
2022-08-09T19:27:23.243Z,92.20
2022-08-09T19:30:20.989Z,92.00
2022-08-09T19:32:38.377Z,92.30
2022-08-09T19:35:06.294Z,92.30
2022-08-09T19:37:52.786Z,92.60
2022-08-09T19:40:23.075Z,92.90
2022-08-09T19:42:51.381Z,93.20
2022-08-09T19:45:19.716Z,93.30
2022-08-09T19:47:47.829Z,93.40
2022-08-09T19:50:51.397Z,93.50
2022-08-09T19:53:04.524Z,93.10
2022-08-09T19:56:02.879Z,93.60
2022-08-09T19:58:29.551Z,93.40
2022-08-09T20:00:58.347Z,93.50
2022-08-09T20:04:09.978Z,93.90
2022-08-09T20:06:22.937Z,93.90
2022-08-09T20:08:56.871Z,94.20
2022-08-09T20:11:26.738Z,94.30
2022-08-09T20:13:55.618Z,94.40
2022-08-09T20:16:36.156Z,94.30
2022-08-09T20:19:47.492Z,94.40
2022-08-09T20:21:57.103Z,94.40
2022-08-09T20:24:29.865Z,94.70
2022-08-09T20:27:05.571Z,94.60
2022-08-09T20:29:37.954Z,94.70
2022-08-09T20:32:31.395Z,94.60
2022-08-09T20:34:55.968Z,94.90
2022-08-09T20:37:24.270Z,95.10
2022-08-09T20:40:15.047Z,95.00
2022-08-09T20:42:38.838Z,95.10
2022-08-09T20:47:55.387Z,95.10
2022-08-09T20:50:47.705Z,95.30
2022-08-09T20:53:34.924Z,95.20
2022-08-09T20:56:02.549Z,95.50
2022-08-09T20:58:32.894Z,95.20
2022-08-09T21:01:32.868Z,96.10
2022-08-09T21:05:48.575Z,96.10
2022-08-09T21:06:41.551Z,96.10
2022-08-09T21:09:11.793Z,96.20
2022-08-09T21:14:31.327Z,95.90
2022-08-09T21:17:02.239Z,95.80
2022-08-09T21:20:17.475Z,96.20
2022-08-09T21:22:41.736Z,96.10
2022-08-09T21:25:38.230Z,96.20
2022-08-09T21:28:12.051Z,96.20
2022-08-09T21:30:43.489Z,96.50
2022-08-09T21:33:11.503Z,96.10
2022-08-09T21:35:51.118Z,96.50
2022-08-09T21:38:31.464Z,96.60
2022-08-09T21:40:59.642Z,96.50
2022-08-09T21:43:56.026Z,96.70
2022-08-09T21:46:14.505Z,96.60
2022-08-09T21:48:42.419Z,96.50
2022-08-09T21:51:14.171Z,96.60
2022-08-09T21:53:55.886Z,96.40
2022-08-09T21:56:43.355Z,96.40
2022-08-09T21:59:11.868Z,96.70
2022-08-09T22:02:01.334Z,96.90
2022-08-09T22:04:55.723Z,96.60
2022-08-09T22:07:35.122Z,96.90
2022-08-09T22:10:09.099Z,96.70
2022-08-09T22:12:38.814Z,97.00
2022-08-09T22:15:13.854Z,96.80
2022-08-09T22:17:46.014Z,96.70
2022-08-09T22:20:16.780Z,97.00
2022-08-09T22:22:49.436Z,96.90
2022-08-09T22:26:07.765Z,96.80
2022-08-09T22:28:07.186Z,96.70
2022-08-09T22:30:34.898Z,96.80
2022-08-09T22:33:09.699Z,96.70
2022-08-09T22:36:01.461Z,96.50
2022-08-09T22:38:26.316Z,96.60
2022-08-09T22:40:58.185Z,96.60
2022-08-09T22:44:01.989Z,96.40
2022-08-09T22:48:14.263Z,96.60
2022-08-09T22:49:10.126Z,96.50
2022-08-09T22:51:39.405Z,96.50
2022-08-09T22:54:11.133Z,96.50
2022-08-09T22:56:41.316Z,96.70
2022-08-09T22:59:58.384Z,96.50
2022-08-09T23:01:57.446Z,96.50
2022-08-09T23:04:25.657Z,96.40
2022-08-09T23:07:13.988Z,96.90
2022-08-09T23:09:44.334Z,97.20
2022-08-09T23:12:11.629Z,97.30
2022-08-09T23:14:42.490Z,97.00
2022-08-09T23:17:11.075Z,97.20
2022-08-09T23:20:00.984Z,97.20
2022-08-09T23:22:26.541Z,97.40
2022-08-09T23:24:53.804Z,97.60
2022-08-09T23:27:21.148Z,97.60
2022-08-09T23:29:48.579Z,97.60
2022-08-09T23:32:16.063Z,97.90
2022-08-09T23:34:43.474Z,97.90
2022-08-09T23:37:11.067Z,97.80
2022-08-09T23:39:38.627Z,97.70
2022-08-09T23:42:08.047Z,98.00
2022-08-09T23:44:35.613Z,97.90
2022-08-09T23:47:02.778Z,97.80
2022-08-09T23:49:30.237Z,97.90
2022-08-09T23:51:58.103Z,98.00
2022-08-09T23:54:26.768Z,98.30
2022-08-09T23:56:56.287Z,98.30
2022-08-09T23:59:25.949Z,98.20
